KJST/JST METAR and TAF weather

Enter ICAO airport designator
Station Type Date Time Source
KJST METAR 2019/02/16 17:54 UTC NOAA

KJST 161754Z AUTO 31010KT 10SM FEW025 M03/M09 A2987 RMK AO2 SLP144 60000 T10281089 11028 21061 58006


Station Type Date Time Source
KJST Decoded METAR 2019/02/16 17:54 UTC NOAA

JOHNSTOWN-CAMBRIA CO AIRPORT , PA, United States (KJST) 40-19N 078-50W 694M
Feb 16, 2019 - 12:54 PM EST / 2019.02.16 1754 UTC
Wind: from the NW (310 degrees) at 12 MPH (10 KT):0
Visibility: 10 mile(s):0
Sky conditions: mostly clear
Temperature: 27.0 F (-2.8 C)
Windchill: 15 F (-9 C):1
Dew Point: 16.0 F (-8.9 C)
Relative Humidity: 62%
Pressure (altimeter): 29.87 in. Hg (1011 hPa)
Pressure tendency: 0.02 inches (0.6 hPa) lower than three hours ago
ob: KJST 161754Z AUTO 31010KT 10SM FEW025 M03/M09 A2987 RMK AO2 SLP144 60000 T10281089 11028 21061 58006
cycle: 18

Station Type Date Time Source
KJST TAF 2019/02/16 18:40 UTC NOAA

TAF KJST 161740Z 1618/1718 32010KT P6SM SCT020
TEMPO 1618/1621 BKN022
FM170000 34005KT P6SM SCT025
FM170600 06004KT P6SM BKN200
FM171200 12009G15KT P6SM BKN060 OVC080


Example: see airport list